createdAt,value
2023-01-08T00:00:12.786Z,69.49
2023-01-08T00:05:14.121Z,70.08
2023-01-08T00:10:15.629Z,70.25
2023-01-08T00:15:17.001Z,70.51
2023-01-08T00:20:18.336Z,70.32
2023-01-08T00:25:20.824Z,70.27
2023-01-08T00:30:22.219Z,70.24
2023-01-08T00:35:23.669Z,70.29
2023-01-08T00:40:25.033Z,70.12
2023-01-08T00:45:26.427Z,70.31
2023-01-08T00:50:28.189Z,70.72
2023-01-08T00:55:30.573Z,70.51
2023-01-08T01:00:32.175Z,70.21
2023-01-08T01:05:33.554Z,70.28
2023-01-08T01:10:34.977Z,70.49
2023-01-08T01:15:36.383Z,71.09
2023-01-08T01:20:38.635Z,71.72
2023-01-08T01:25:39.975Z,71.75
2023-01-08T01:30:41.430Z,71.69
2023-01-08T01:35:42.822Z,71.80
2023-01-08T01:40:44.151Z,71.60
2023-01-08T01:45:45.653Z,71.44
2023-01-08T01:50:51.645Z,71.24
2023-01-08T01:55:53.606Z,71.18
2023-01-08T02:00:58.077Z,70.83
2023-01-08T02:06:19.386Z,71.11
2023-01-08T02:11:35.462Z,70.53
2023-01-08T02:16:45.599Z,70.63
2023-01-08T02:22:02.737Z,70.26
2023-01-08T02:27:06.592Z,70.36
2023-01-08T02:32:08.124Z,69.98
2023-01-08T02:37:10.059Z,69.48
2023-01-08T02:42:20.337Z,69.99
2023-01-08T02:47:28.344Z,70.31
2023-01-08T02:52:34.437Z,70.40
2023-01-08T02:57:35.945Z,70.62
2023-01-08T03:02:41.473Z,71.13
2023-01-08T03:07:43.485Z,71.14
2023-01-08T03:12:53.739Z,71.45
2023-01-08T03:18:01.638Z,71.65
2023-01-08T03:23:07.749Z,72.12
2023-01-08T03:28:18.861Z,72.12
2023-01-08T03:33:22.946Z,72.75
2023-01-08T03:38:30.865Z,73.05
2023-01-08T03:43:32.303Z,72.81
2023-01-08T03:48:36.231Z,73.46
2023-01-08T03:53:37.868Z,73.71
2023-01-08T03:58:39.207Z,74.03
2023-01-08T04:03:40.553Z,74.32
2023-01-08T04:08:41.886Z,74.74
2023-01-08T04:13:43.282Z,74.91
2023-01-08T04:18:44.679Z,75.21
2023-01-08T04:23:46.040Z,75.58
2023-01-08T04:28:47.362Z,75.46
2023-01-08T04:33:48.752Z,75.95
2023-01-08T04:38:50.077Z,76.05
2023-01-08T04:43:51.486Z,75.91
2023-01-08T04:48:52.900Z,76.11
2023-01-08T04:53:54.364Z,76.11
2023-01-08T04:58:55.745Z,76.43
2023-01-08T05:03:59.447Z,76.73
2023-01-08T05:09:01.090Z,76.81
2023-01-08T05:14:02.408Z,77.23
2023-01-08T05:19:03.724Z,77.27
2023-01-08T05:24:05.332Z,77.29
2023-01-08T05:29:06.673Z,77.56
2023-01-08T05:34:08.006Z,78.02
2023-01-08T05:39:09.493Z,78.28
2023-01-08T05:44:11.048Z,78.53
2023-01-08T05:49:12.483Z,78.36
2023-01-08T05:54:14.362Z,78.10
2023-01-08T05:59:15.741Z,78.47
2023-01-08T06:04:17.154Z,78.87
2023-01-08T06:09:19.791Z,78.65
2023-01-08T06:14:21.182Z,78.92
2023-01-08T06:19:22.744Z,78.89
2023-01-08T06:24:24.130Z,78.90
2023-01-08T06:29:25.488Z,78.88
2023-01-08T06:34:26.844Z,78.77
2023-01-08T06:39:28.270Z,78.71
2023-01-08T06:44:29.710Z,78.66
2023-01-08T06:49:31.045Z,78.65
2023-01-08T06:54:32.407Z,78.35
2023-01-08T06:59:33.741Z,78.62
2023-01-08T07:04:35.081Z,78.81
2023-01-08T07:09:36.421Z,78.84
2023-01-08T07:14:37.825Z,78.77
2023-01-08T07:19:39.271Z,78.85
2023-01-08T07:24:40.722Z,78.87
2023-01-08T07:29:42.064Z,79.06
2023-01-08T07:34:43.371Z,79.28
2023-01-08T07:39:44.795Z,78.93
2023-01-08T07:44:46.164Z,78.83
2023-01-08T07:49:47.500Z,78.68
2023-01-08T07:54:48.839Z,78.82
2023-01-08T07:59:50.199Z,78.89
2023-01-08T08:04:51.557Z,78.95
2023-01-08T08:09:52.896Z,79.01
2023-01-08T08:14:54.223Z,79.14
2023-01-08T08:19:55.573Z,78.82
2023-01-08T08:24:56.937Z,78.76
2023-01-08T08:29:58.323Z,78.92
2023-01-08T08:35:00.214Z,78.74
2023-01-08T08:40:01.551Z,78.45
2023-01-08T08:45:03.365Z,78.59
2023-01-08T08:50:06.466Z,79.15
2023-01-08T08:55:08.274Z,79.34
2023-01-08T09:00:10.387Z,79.35
2023-01-08T09:05:11.944Z,79.03
2023-01-08T09:10:13.264Z,78.80
2023-01-08T09:15:14.692Z,79.16
2023-01-08T09:20:16.166Z,79.16
2023-01-08T09:25:17.891Z,79.52
2023-01-08T09:30:19.312Z,79.31
2023-01-08T09:35:20.651Z,79.19
2023-01-08T09:40:26.316Z,79.28
2023-01-08T09:45:31.015Z,79.52
2023-01-08T09:50:33.915Z,79.57
2023-01-08T09:55:35.439Z,79.76
2023-01-08T10:00:36.878Z,79.28
2023-01-08T10:05:38.364Z,79.48
2023-01-08T10:10:41.609Z,79.35
2023-01-08T10:15:42.992Z,79.43
2023-01-08T10:20:44.328Z,79.39
2023-01-08T10:25:57.033Z,79.22
2023-01-08T10:31:04.119Z,79.29
2023-01-08T10:36:08.823Z,79.47
2023-01-08T10:41:13.400Z,79.18
2023-01-08T10:46:24.613Z,79.08
2023-01-08T10:51:28.647Z,79.53
2023-01-08T10:56:40.498Z,79.43
2023-01-08T11:01:47.261Z,79.06
2023-01-08T11:06:48.787Z,79.10
2023-01-08T11:11:50.272Z,79.26
2023-01-08T11:16:51.963Z,79.25
2023-01-08T11:21:59.376Z,78.81
2023-01-08T11:27:16.685Z,78.91
2023-01-08T11:32:37.442Z,78.77
2023-01-08T11:37:41.345Z,78.80
2023-01-08T11:43:07.369Z,78.81
2023-01-08T11:48:42.402Z,78.59
2023-01-08T11:53:57.228Z,78.66
2023-01-08T11:59:21.137Z,78.23
2023-01-08T12:04:58.090Z,78.10
2023-01-08T12:10:11.585Z,77.62
2023-01-08T12:15:12.949Z,77.99
2023-01-08T12:20:30.160Z,77.48
2023-01-08T12:25:44.481Z,77.80
2023-01-08T12:30:52.010Z,77.89
2023-01-08T12:35:55.042Z,77.84
2023-01-08T12:41:00.345Z,77.62
2023-01-08T12:46:03.692Z,77.68
2023-01-08T12:51:18.007Z,77.12
2023-01-08T12:56:37.487Z,77.15
2023-01-08T13:01:47.465Z,77.27
2023-01-08T13:07:01.321Z,76.88
2023-01-08T13:12:03.006Z,76.95
2023-01-08T13:17:07.780Z,76.75
2023-01-08T13:22:28.362Z,76.84
2023-01-08T13:27:30.061Z,76.36
2023-01-08T13:32:34.442Z,76.58
2023-01-08T13:37:35.813Z,76.34
2023-01-08T13:42:41.232Z,75.86
2023-01-08T13:47:43.709Z,75.83
2023-01-08T13:52:55.951Z,76.07
2023-01-08T13:58:13.168Z,76.08
2023-01-08T14:03:29.407Z,76.22
2023-01-08T14:08:30.787Z,75.75
2023-01-08T14:13:35.533Z,76.03
2023-01-08T14:18:40.680Z,75.63
2023-01-08T14:23:47.488Z,75.54
2023-01-08T14:28:54.077Z,75.30
2023-01-08T14:33:57.611Z,76.07
2023-01-08T14:38:58.952Z,75.88
2023-01-08T14:44:00.342Z,75.81
2023-01-08T14:49:01.893Z,76.01
2023-01-08T14:54:06.025Z,76.18
2023-01-08T14:59:10.872Z,75.49
2023-01-08T15:04:18.634Z,75.50
2023-01-08T15:09:31.747Z,75.59
2023-01-08T15:14:36.598Z,75.37
2023-01-08T15:19:49.381Z,75.27
2023-01-08T15:24:58.148Z,75.17
2023-01-08T15:30:00.776Z,75.15
2023-01-08T15:35:12.683Z,75.08
2023-01-08T15:40:14.203Z,75.00
2023-01-08T15:45:21.377Z,74.81
2023-01-08T15:50:24.671Z,75.10
2023-01-08T15:55:26.276Z,75.58
2023-01-08T16:00:27.907Z,76.03
2023-01-08T16:05:30.584Z,75.14
2023-01-08T16:10:32.569Z,75.44
2023-01-08T16:15:33.983Z,75.57
2023-01-08T16:20:35.676Z,75.82
2023-01-08T16:25:39.092Z,75.10
2023-01-08T16:30:42.504Z,75.61
2023-01-08T16:35:43.855Z,75.28
2023-01-08T16:40:45.217Z,75.32
2023-01-08T16:45:47.712Z,75.42
2023-01-08T16:50:49.489Z,75.30
2023-01-08T16:55:50.857Z,75.51
2023-01-08T17:00:52.430Z,75.48
2023-01-08T17:05:55.592Z,75.16
2023-01-08T17:10:56.969Z,75.50
2023-01-08T17:15:59.900Z,75.47
2023-01-08T17:21:02.228Z,75.33
2023-01-08T17:26:08.975Z,75.16
2023-01-08T17:31:13.287Z,75.17
2023-01-08T17:36:17.212Z,74.97
2023-01-08T17:41:38.341Z,74.40
2023-01-08T17:46:42.347Z,74.75
2023-01-08T17:51:45.699Z,74.37
2023-01-08T17:56:48.854Z,74.36
2023-01-08T18:01:52.791Z,74.69
2023-01-08T18:06:54.374Z,74.29
2023-01-08T18:11:55.804Z,74.29
2023-01-08T18:16:57.213Z,74.53
2023-01-08T18:21:58.617Z,74.58
2023-01-08T18:26:59.991Z,73.81
2023-01-08T18:32:02.042Z,73.70
2023-01-08T18:37:03.426Z,73.80
2023-01-08T18:42:23.641Z,73.50
2023-01-08T18:47:27.634Z,74.03
2023-01-08T18:52:29.652Z,73.33
2023-01-08T18:57:31.327Z,73.68
2023-01-08T19:02:35.596Z,73.72
2023-01-08T19:07:37.052Z,73.26
2023-01-08T19:12:39.171Z,73.25
2023-01-08T19:17:40.529Z,73.39
2023-01-08T19:22:41.860Z,73.48
2023-01-08T19:27:44.920Z,72.82
2023-01-08T19:32:48.768Z,73.31
2023-01-08T19:37:50.188Z,73.54
2023-01-08T19:43:10.308Z,73.39
2023-01-08T19:48:11.689Z,73.22
2023-01-08T19:53:14.594Z,73.28
2023-01-08T19:58:18.472Z,73.23
2023-01-08T20:03:23.815Z,73.19
2023-01-08T20:08:25.129Z,73.32
2023-01-08T20:13:26.449Z,73.21
2023-01-08T20:18:27.940Z,73.31
2023-01-08T20:23:29.341Z,73.42
2023-01-08T20:28:30.743Z,73.25
2023-01-08T20:33:32.179Z,73.25
2023-01-08T20:38:33.512Z,72.92
2023-01-08T20:43:35.748Z,72.94
2023-01-08T20:48:46.926Z,72.94
2023-01-08T20:53:48.840Z,72.98
2023-01-08T20:58:50.247Z,72.73
2023-01-08T21:03:55.201Z,72.66
2023-01-08T21:08:59.528Z,73.00
2023-01-08T21:14:01.837Z,72.90
2023-01-08T21:19:03.637Z,72.57
2023-01-08T21:24:05.649Z,71.90
2023-01-08T21:29:07.888Z,71.82
2023-01-08T21:34:10.371Z,71.77
2023-01-08T21:39:11.887Z,71.82
2023-01-08T21:44:35.173Z,72.02
2023-01-08T21:49:36.569Z,71.98
2023-01-08T21:54:40.896Z,72.16
2023-01-08T21:59:42.594Z,71.92
2023-01-08T22:04:44.823Z,72.07
2023-01-08T22:09:46.170Z,72.68
2023-01-08T22:14:47.476Z,73.05
2023-01-08T22:19:48.874Z,72.97
2023-01-08T22:24:52.204Z,73.21
2023-01-08T22:29:54.430Z,73.02
2023-01-08T22:34:55.843Z,73.21
2023-01-08T22:39:57.180Z,73.52
2023-01-08T22:44:58.501Z,74.03
2023-01-08T22:49:59.832Z,73.88
2023-01-08T22:55:02.568Z,74.01
2023-01-08T23:00:06.875Z,74.18
2023-01-08T23:05:08.432Z,74.23
2023-01-08T23:10:10.536Z,74.53
2023-01-08T23:15:11.879Z,74.66
2023-01-08T23:20:14.165Z,74.58
2023-01-08T23:25:16.170Z,74.65
2023-01-08T23:30:17.600Z,74.87
2023-01-08T23:35:18.974Z,75.30
2023-01-08T23:40:20.296Z,75.35
2023-01-08T23:45:21.660Z,75.37
2023-01-08T23:50:22.979Z,75.59
2023-01-08T23:55:24.563Z,76.27
